createdAt,value
2022-07-31T00:02:25.241Z,17.60
2022-07-31T00:08:26.826Z,18.70
2022-07-31T00:14:29.239Z,19.50
2022-07-31T00:20:30.747Z,19.25
2022-07-31T00:26:32.611Z,18.43
2022-07-31T00:32:34.090Z,18.52
2022-07-31T00:38:35.584Z,16.43
2022-07-31T00:44:37.176Z,15.63
2022-07-31T00:50:40.056Z,19.80
2022-07-31T00:56:41.601Z,18.23
2022-07-31T01:02:46.531Z,20.33
2022-07-31T01:08:48.761Z,19.50
2022-07-31T01:14:52.547Z,21.08
2022-07-31T01:20:55.871Z,20.23
2022-07-31T01:27:01.276Z,22.07
2022-07-31T01:33:06.576Z,24.65
2022-07-31T01:39:08.177Z,18.17
2022-07-31T01:45:11.323Z,22.80
2022-07-31T01:51:13.620Z,20.08
2022-07-31T01:57:17.372Z,23.50
2022-07-31T02:03:43.676Z,19.60
2022-07-31T02:09:52.308Z,22.07
2022-07-31T02:16:01.573Z,20.13
2022-07-31T02:22:07.681Z,22.38
2022-07-31T02:28:11.212Z,23.53
2022-07-31T02:34:13.535Z,19.65
2022-07-31T02:40:16.062Z,20.97
2022-07-31T02:46:18.873Z,23.45
2022-07-31T02:52:20.624Z,23.50
2022-07-31T02:58:22.678Z,21.60
2022-07-31T03:04:24.509Z,21.20
2022-07-31T03:10:26.026Z,20.33
2022-07-31T03:16:37.603Z,20.00
2022-07-31T03:22:42.230Z,18.63
2022-07-31T03:28:43.807Z,20.67
2022-07-31T03:34:45.518Z,20.63
2022-07-31T03:40:47.474Z,25.07
2022-07-31T03:46:49.005Z,21.70
2022-07-31T03:52:50.781Z,24.83
2022-07-31T03:58:53.132Z,22.93
2022-07-31T04:04:57.182Z,21.77
2022-07-31T04:11:00.030Z,21.67
2022-07-31T04:17:02.192Z,23.50
2022-07-31T04:23:04.083Z,23.27
2022-07-31T04:29:29.513Z,25.57
2022-07-31T04:35:31.073Z,25.42
2022-07-31T04:41:32.632Z,28.83
2022-07-31T04:47:34.096Z,27.58
2022-07-31T04:53:38.394Z,25.27
2022-07-31T04:59:57.961Z,24.13
2022-07-31T05:06:08.898Z,24.65
2022-07-31T05:12:11.639Z,24.03
2022-07-31T05:18:13.154Z,23.77
2022-07-31T05:24:37.393Z,22.42
2022-07-31T05:30:43.793Z,19.67
2022-07-31T05:36:45.552Z,22.42
2022-07-31T05:42:48.177Z,23.00
2022-07-31T05:49:04.243Z,20.35
2022-07-31T05:55:06.116Z,19.92
2022-07-31T06:01:26.067Z,23.67
2022-07-31T06:07:28.125Z,18.15
2022-07-31T06:13:30.249Z,18.33
2022-07-31T06:19:37.693Z,19.75
2022-07-31T06:25:39.306Z,19.10
2022-07-31T06:31:41.155Z,20.43
2022-07-31T06:37:43.190Z,16.00
2022-07-31T06:43:44.654Z,15.53
2022-07-31T06:50:05.748Z,15.63
2022-07-31T06:56:16.077Z,16.25
2022-07-31T07:02:17.652Z,17.63
2022-07-31T07:08:19.490Z,15.10
2022-07-31T07:14:24.092Z,15.53
2022-07-31T07:20:25.817Z,14.63
2022-07-31T07:26:27.370Z,14.27
2022-07-31T07:32:29.217Z,15.60
2022-07-31T07:38:30.958Z,16.45
2022-07-31T07:44:32.848Z,14.00
2022-07-31T07:50:34.749Z,12.93
2022-07-31T07:56:58.038Z,15.82
2022-07-31T08:03:49.637Z,14.80
2022-07-31T08:09:46.619Z,11.70
2022-07-31T08:16:07.235Z,11.13
2022-07-31T08:22:16.049Z,11.85
2022-07-31T08:28:19.483Z,13.77
2022-07-31T08:34:30.911Z,11.50
2022-07-31T08:40:43.186Z,13.75
2022-07-31T08:46:46.412Z,12.57
2022-07-31T08:52:49.572Z,15.00
2022-07-31T08:59:08.582Z,12.93
2022-07-31T09:05:10.302Z,13.47
2022-07-31T09:11:14.587Z,13.35
2022-07-31T09:17:30.804Z,11.23
2022-07-31T09:23:33.189Z,8.57
2022-07-31T09:29:37.071Z,10.32
2022-07-31T09:35:46.760Z,10.43
2022-07-31T09:42:01.799Z,9.23
2022-07-31T09:48:28.560Z,11.57
2022-07-31T09:54:31.402Z,8.68
2022-07-31T10:00:33.372Z,8.40
2022-07-31T10:06:35.190Z,7.93
2022-07-31T10:12:42.346Z,8.43
2022-07-31T10:18:47.178Z,9.17
2022-07-31T10:25:29.654Z,6.80
2022-07-31T10:31:32.964Z,11.02
2022-07-31T10:37:54.204Z,6.23
2022-07-31T10:44:19.195Z,5.20
2022-07-31T10:50:33.977Z,7.77
2022-07-31T10:56:43.374Z,9.55
2022-07-31T11:02:58.810Z,6.35
2022-07-31T11:09:21.221Z,5.37
2022-07-31T11:15:29.835Z,6.65
2022-07-31T11:22:31.789Z,6.17
2022-07-31T11:28:34.971Z,7.40
2022-07-31T11:34:49.778Z,7.55
2022-07-31T11:40:51.475Z,7.70
2022-07-31T11:46:55.113Z,5.50
2022-07-31T11:53:03.173Z,6.20
2022-07-31T11:59:04.677Z,5.00
2022-07-31T12:05:07.795Z,4.63
2022-07-31T12:11:10.868Z,5.07
2022-07-31T12:17:21.752Z,5.43
2022-07-31T12:23:38.667Z,6.17
2022-07-31T12:29:43.268Z,6.95
2022-07-31T12:35:55.607Z,4.50
2022-07-31T12:41:58.886Z,6.20
2022-07-31T12:48:00.938Z,4.45
2022-07-31T12:54:03.545Z,4.37
2022-07-31T13:00:06.268Z,4.25
2022-07-31T13:06:08.943Z,3.90
2022-07-31T13:12:10.466Z,3.97
2022-07-31T13:18:11.953Z,3.95
2022-07-31T13:24:14.146Z,4.38
2022-07-31T13:30:16.235Z,4.33
2022-07-31T13:36:17.950Z,4.78
2022-07-31T13:42:19.448Z,4.20
2022-07-31T13:48:21.019Z,5.70
2022-07-31T13:54:22.834Z,4.87
2022-07-31T14:00:24.317Z,4.38
2022-07-31T14:06:25.775Z,4.85
2022-07-31T14:12:27.276Z,4.17
2022-07-31T14:18:30.421Z,5.18
2022-07-31T14:24:31.954Z,4.97
2022-07-31T14:30:33.945Z,4.07
2022-07-31T14:36:35.760Z,6.60
2022-07-31T14:42:37.204Z,5.78
2022-07-31T14:48:40.816Z,5.30
2022-07-31T14:54:42.281Z,4.95
2022-07-31T15:00:43.874Z,5.33
2022-07-31T15:06:56.383Z,6.75
2022-07-31T15:13:04.438Z,3.80
2022-07-31T15:19:06.017Z,4.67
2022-07-31T15:25:07.855Z,5.05
2022-07-31T15:31:09.334Z,7.53
2022-07-31T15:37:10.869Z,5.28
2022-07-31T15:43:21.904Z,5.22
2022-07-31T15:49:23.385Z,3.90
2022-07-31T15:55:25.319Z,6.03
2022-07-31T16:01:26.885Z,5.63
2022-07-31T16:08:30.115Z,3.80
2022-07-31T16:13:50.000Z,4.20
2022-07-31T16:19:51.464Z,5.33
2022-07-31T16:25:53.111Z,6.22
2022-07-31T16:31:54.556Z,3.65
2022-07-31T16:37:56.066Z,4.83
2022-07-31T16:43:57.553Z,7.30
2022-07-31T16:49:59.062Z,5.73
2022-07-31T16:56:01.841Z,4.70
2022-07-31T17:02:03.703Z,4.45
2022-07-31T17:08:05.361Z,4.20
2022-07-31T17:14:06.840Z,4.30
2022-07-31T17:20:08.796Z,4.70
2022-07-31T17:26:21.080Z,5.30
2022-07-31T17:32:23.216Z,5.07
2022-07-31T17:38:25.126Z,5.03
2022-07-31T17:44:27.345Z,4.28
2022-07-31T17:50:29.466Z,6.30
2022-07-31T17:56:30.930Z,5.38
2022-07-31T18:02:32.461Z,7.18
2022-07-31T18:08:33.950Z,5.40
2022-07-31T18:14:35.701Z,7.20
2022-07-31T18:20:37.390Z,5.60
2022-07-31T18:26:38.897Z,6.90
2022-07-31T18:32:40.365Z,5.40
2022-07-31T18:38:45.558Z,17.83
2022-07-31T18:44:47.127Z,23.05
2022-07-31T18:51:01.943Z,8.87
2022-07-31T18:57:05.520Z,7.57
2022-07-31T19:03:07.836Z,7.45
2022-07-31T19:09:09.312Z,5.07
2022-07-31T19:15:11.033Z,6.60
2022-07-31T19:21:23.168Z,4.80
2022-07-31T19:27:48.086Z,7.77
2022-07-31T19:33:50.785Z,6.70
2022-07-31T19:39:52.269Z,8.00
2022-07-31T19:46:09.598Z,5.53
2022-07-31T19:52:13.717Z,6.60
2022-07-31T19:58:17.585Z,6.07
2022-07-31T20:04:19.244Z,6.38
2022-07-31T20:10:21.935Z,4.90
2022-07-31T20:16:25.134Z,6.47
2022-07-31T20:22:26.644Z,7.20
2022-07-31T20:28:28.222Z,5.57
2022-07-31T20:34:29.802Z,7.05
2022-07-31T20:40:31.507Z,6.20
2022-07-31T20:46:33.010Z,7.22
2022-07-31T20:52:34.484Z,6.75
2022-07-31T20:58:36.123Z,6.03
2022-07-31T21:04:37.594Z,6.38
2022-07-31T21:10:39.473Z,6.57
2022-07-31T21:16:41.328Z,5.90
2022-07-31T21:22:42.844Z,5.75
2022-07-31T21:28:45.076Z,5.77
2022-07-31T21:34:46.712Z,4.97
2022-07-31T21:40:48.758Z,5.67
2022-07-31T21:46:52.215Z,6.18
2022-07-31T21:52:53.664Z,5.60
2022-07-31T21:58:55.169Z,5.20
2022-07-31T22:05:15.114Z,5.30
2022-07-31T22:11:16.564Z,6.43
2022-07-31T22:17:18.132Z,5.65
2022-07-31T22:23:19.981Z,4.90
2022-07-31T22:29:21.460Z,5.30
2022-07-31T22:35:23.016Z,5.10
2022-07-31T22:41:24.553Z,5.83
2022-07-31T22:47:27.153Z,6.60
2022-07-31T22:53:28.618Z,5.63
2022-07-31T22:59:30.145Z,7.63
2022-07-31T23:06:02.607Z,6.53
2022-07-31T23:11:53.290Z,6.97
2022-07-31T23:17:54.811Z,6.43
2022-07-31T23:23:56.339Z,6.97
2022-07-31T23:29:58.709Z,7.40
2022-07-31T23:36:00.897Z,6.20
2022-07-31T23:42:20.920Z,6.33
2022-07-31T23:48:22.394Z,5.88
2022-07-31T23:54:30.801Z,6.82
